Andover, VA

7:34 PM EDT on August 25, 2016 (GMT -0400)
Lonesome Pine

Weather History for KLNP - February, 2013

Change the Weather History Date:

Sunday, February 3, 2013

  Actual Average Record
Temperature  
Mean Temperature 29 °F -  
Max Temperature 32 °F 41 °F 60 °F (2016)
Min Temperature 26 °F 25 °F 6 °F (2009)
Degree Days  
Heating Degree Days 36    
Moisture  
Dew Point 27 °F    
Average Humidity 91    
Maximum Humidity 100    
Minimum Humidity 74    
Precipitation  
Precipitation 0.00 in - - ()
Sea Level Pressure  
Sea Level Pressure 29.93 in    
Wind  
Wind Speed 9 mph (West)    
Max Wind Speed 21 mph    
Max Gust Speed 26 mph    
Visibility 6 miles    
Events Snow    
Averages and records for this station are not official NWS values.
T = Trace of Precipitation, MM = Missing Value Source: NWS Daily Summary

Daily Weather History Graph

Daily Weather History Graph

Search for Another Location

Airport or City:

Trip Planner

Search our weather history database for the weather conditions in past years. The results will help you decide how hot, cold, wet, or windy it might be!

Date:

Astronomy

Feb. 03, 2013 Rise Set
Actual Time 7:30 AM EST 5:57 PM EST
Civil Twilight 7:03 AM EST 6:24 PM EST
Nautical Twilight 6:32 AM EST 6:55 PM EST
Astronomical Twilight 6:02 AM EST 7:26 PM EST
Moon 12:56 AM EST (2/3) 11:34 AM EST (2/3)
Length of Visible Light 11h 21m
Length of Day
10h 27m
Waning Gibbous, 49% of the Moon is Illuminated
Feb 3
Waning Gibbous
Feb 10
New
Feb 17
First Quarter
Feb 25
Full
Mar 4
Last Quarter

Hourly Weather History & Observations

Time (EST) Temp. Windchill Dew Point Humidity Pressure Visibility Wind Dir Wind Speed Gust Speed Precip Events Conditions
12:15 AM 30.2 °F 24.3 °F 30.2 °F 100% 29.96 in 4.0 mi SW 5.8 mph - N/A Snow Light Snow
12:35 AM 30.2 °F 22.6 °F 30.2 °F 100% 29.96 in 5.0 mi WSW 8.1 mph - N/A Snow Light Snow
12:55 AM 30.2 °F 22.6 °F 30.2 °F 100% 29.95 in 4.0 mi WSW 8.1 mph - N/A Snow Light Snow
1:15 AM 30.2 °F 25.4 °F 30.2 °F 100% 29.95 in 4.0 mi WSW 4.6 mph - N/A Snow Light Snow
1:35 AM 30.2 °F 25.4 °F 30.2 °F 100% 29.95 in 1.8 mi SW 4.6 mph - N/A Snow Light Snow
1:55 AM 30.2 °F 24.3 °F 30.2 °F 100% 29.94 in 1.2 mi WSW 5.8 mph - N/A Snow Light Snow
2:15 AM 30.2 °F 24.3 °F 30.2 °F 100% 29.94 in 1.5 mi WSW 5.8 mph - N/A Snow Light Snow
2:35 AM 30.2 °F - 30.2 °F 100% 29.94 in 1.2 mi Calm Calm - N/A Snow Light Snow
2:55 AM 30.2 °F 24.3 °F 30.2 °F 100% 29.94 in 1.0 mi NW 5.8 mph - N/A Snow Light Snow
3:15 AM 28.4 °F 21.2 °F 28.4 °F 100% 29.93 in 3.0 mi West 6.9 mph - N/A Snow Light Snow
3:35 AM 28.4 °F 23.3 °F 28.4 °F 100% 29.92 in 10.0 mi WSW 4.6 mph - N/A   Overcast
3:55 AM 28.4 °F 22.2 °F 28.4 °F 100% 29.92 in 10.0 mi West 5.8 mph - N/A   Overcast
4:15 AM 28.4 °F 21.2 °F 28.4 °F 100% 29.91 in 10.0 mi West 6.9 mph - N/A Snow Light Snow
4:55 AM 28.4 °F 17.0 °F 26.6 °F 93% 29.90 in 10.0 mi West 15.0 mph 26.5 mph N/A   Overcast
5:15 AM 28.4 °F 19.1 °F 26.6 °F 93% 29.90 in 10.0 mi West 10.4 mph - N/A   Overcast
5:35 AM 30.2 °F 21.9 °F 24.8 °F 80% 29.89 in 10.0 mi WSW 9.2 mph - N/A   Overcast
5:55 AM 28.4 °F 19.7 °F 26.6 °F 93% 29.89 in 10.0 mi SW 9.2 mph - N/A   Overcast
6:15 AM 28.4 °F 19.7 °F 26.6 °F 93% 29.88 in 10.0 mi SW 9.2 mph - N/A   Overcast
6:35 AM 28.4 °F 19.7 °F 28.4 °F 100% 29.87 in 10.0 mi SW 9.2 mph - N/A   Overcast
6:55 AM 28.4 °F 19.1 °F 28.4 °F 100% 29.88 in 10.0 mi SW 10.4 mph - N/A   Overcast
7:15 AM 28.4 °F 19.1 °F 28.4 °F 100% 29.88 in 0.8 mi SW 10.4 mph - N/A Snow Light Snow
7:35 AM 28.4 °F 19.1 °F 28.4 °F 100% 29.87 in 2.0 mi SW 10.4 mph - N/A Snow Light Snow
7:55 AM 28.4 °F 19.7 °F 28.4 °F 100% 29.87 in 1.5 mi SW 9.2 mph - N/A Snow Light Snow
8:15 AM 28.4 °F 17.5 °F 28.4 °F 100% 29.87 in 4.0 mi SW 13.8 mph - N/A Snow Light Snow
8:35 AM 30.2 °F 21.3 °F 30.2 °F 100% 29.87 in 1.8 mi SW 10.4 mph - N/A Snow Light Snow
8:55 AM 30.2 °F 21.3 °F 30.2 °F 100% 29.87 in 2.0 mi SW 10.4 mph - N/A Snow Light Snow
9:15 AM 30.2 °F 20.2 °F 30.2 °F 100% 29.88 in 4.0 mi SW 12.7 mph 19.6 mph N/A Snow Light Snow
9:35 AM 30.2 °F 18.9 °F 30.2 °F 100% 29.87 in 5.0 mi WSW 16.1 mph 20.7 mph N/A Snow Light Snow
9:55 AM 30.2 °F 19.3 °F 30.2 °F 100% 29.87 in 5.0 mi SW 15.0 mph - N/A Snow Light Snow
10:15 AM 30.2 °F 20.2 °F 30.2 °F 100% 29.87 in 4.0 mi SW 12.7 mph - N/A Snow Light Snow
10:35 AM 30.2 °F 20.8 °F 30.2 °F 100% 29.87 in 1.8 mi WSW 11.5 mph 17.3 mph N/A Snow Light Snow
10:55 AM 32.0 °F 23.6 °F 32.0 °F 100% 29.87 in 1.0 mi SW 10.4 mph - N/A Snow Light Snow
11:15 AM 32.0 °F 23.0 °F 32.0 °F 100% 29.87 in 7.0 mi WSW 11.5 mph 18.4 mph N/A   Overcast
11:35 AM 32.0 °F 24.8 °F 32.0 °F 100% 29.88 in 2.0 mi WSW 8.1 mph - N/A Snow Light Snow
11:55 AM 32.0 °F 26.4 °F 32.0 °F 100% 29.87 in 2.5 mi WSW 5.8 mph - N/A Snow Light Snow
12:15 PM 32.0 °F 25.6 °F 32.0 °F 100% 29.88 in 1.5 mi West 6.9 mph - N/A Snow Light Snow
12:35 PM 32.0 °F 24.8 °F 32.0 °F 100% 29.87 in 5.0 mi West 8.1 mph - N/A Snow Light Snow
12:55 PM 32.0 °F 23.6 °F 30.2 °F 93% 29.86 in 4.0 mi West 10.4 mph - N/A Snow Light Snow
1:15 PM 32.0 °F 23.6 °F 28.4 °F 87% 29.87 in 5.0 mi WNW 10.4 mph 17.3 mph N/A Snow Light Snow
1:35 PM 32.0 °F 22.1 °F 28.4 °F 87% 29.87 in 1.8 mi WNW 13.8 mph 18.4 mph N/A Snow Light Snow
1:55 PM 32.0 °F 22.1 °F 30.2 °F 93% 29.87 in 3.0 mi WNW 13.8 mph 21.9 mph N/A Snow Light Snow
2:15 PM 32.0 °F 23.6 °F 28.4 °F 87% 29.88 in 2.5 mi WNW 10.4 mph 16.1 mph N/A Snow Light Snow
2:35 PM 32.0 °F 23.0 °F 28.4 °F 87% 29.89 in 7.0 mi West 11.5 mph 18.4 mph N/A   Overcast
2:55 PM 32.0 °F 23.6 °F 28.4 °F 87% 29.89 in 7.0 mi West 10.4 mph 18.4 mph N/A Snow Light Snow
3:15 PM 32.0 °F 22.5 °F 28.4 °F 87% 29.90 in 7.0 mi West 12.7 mph 20.7 mph N/A Snow Light Snow
3:35 PM 32.0 °F 19.8 °F 26.6 °F 80% 29.91 in 10.0 mi West 20.7 mph 25.3 mph N/A Snow Light Snow
3:55 PM 32.0 °F 22.5 °F 26.6 °F 80% 29.92 in 7.0 mi West 12.7 mph 19.6 mph N/A Snow Light Snow
4:15 PM 32.0 °F 28.7 °F 26.6 °F 80% 29.93 in 7.0 mi WNW 3.5 mph - N/A Snow Light Snow
4:35 PM 30.2 °F 22.6 °F 28.4 °F 93% 29.94 in 4.0 mi WNW 8.1 mph - N/A Snow Light Snow
4:55 PM 30.2 °F 21.9 °F 28.4 °F 93% 29.94 in 5.0 mi West 9.2 mph 16.1 mph N/A Snow Light Snow
5:15 PM 30.2 °F 20.8 °F 26.6 °F 86% 29.95 in 10.0 mi West 11.5 mph 17.3 mph N/A Snow Light Snow
5:35 PM 30.2 °F 20.8 °F 26.6 °F 86% 29.96 in 5.0 mi WNW 11.5 mph - N/A Snow Light Snow
5:55 PM 30.2 °F 21.9 °F 26.6 °F 86% 29.96 in 3.0 mi WNW 9.2 mph 18.4 mph N/A Snow Light Snow
6:15 PM 30.2 °F 22.6 °F 26.6 °F 86% 29.97 in 5.0 mi WNW 8.1 mph 18.4 mph N/A Snow Light Snow
6:35 PM 30.2 °F 21.3 °F 26.6 °F 86% 29.98 in 10.0 mi West 10.4 mph 18.4 mph N/A   Overcast
6:55 PM 30.2 °F 21.9 °F 24.8 °F 80% 29.99 in 10.0 mi West 9.2 mph 23.0 mph N/A Snow Light Snow
7:15 PM 30.2 °F 22.6 °F 24.8 °F 80% 30.00 in 10.0 mi WNW 8.1 mph - N/A   Overcast
7:35 PM 30.2 °F 22.6 °F 24.8 °F 80% 30.01 in 10.0 mi West 8.1 mph 17.3 mph N/A   Overcast
7:55 PM 30.2 °F 20.2 °F 24.8 °F 80% 30.02 in 10.0 mi West 12.7 mph 19.6 mph N/A   Overcast
8:15 PM 28.4 °F 19.7 °F 23.0 °F 80% 30.03 in 10.0 mi West 9.2 mph 19.6 mph N/A   Overcast
8:35 PM 28.4 °F 18.0 °F 23.0 °F 80% 30.03 in 10.0 mi West 12.7 mph 19.6 mph N/A Snow Light Snow
8:55 PM 28.4 °F 19.1 °F 23.0 °F 80% 30.03 in 10.0 mi West 10.4 mph 16.1 mph N/A   Overcast
9:15 PM 28.4 °F 16.6 °F 21.2 °F 74% 30.04 in 10.0 mi WNW 16.1 mph 23.0 mph N/A   Overcast
9:35 PM 26.6 °F 14.7 °F 21.2 °F 80% 30.05 in 10.0 mi West 15.0 mph 23.0 mph N/A   Overcast
9:55 PM 26.6 °F 17.5 °F 19.4 °F 74% 30.05 in 10.0 mi West 9.2 mph 17.3 mph N/A   Overcast
10:15 PM 26.6 °F 16.8 °F 19.4 °F 74% 30.05 in 10.0 mi WNW 10.4 mph - N/A   Overcast
10:35 PM 26.6 °F 19.1 °F 19.4 °F 74% 30.06 in 10.0 mi WNW 6.9 mph 16.1 mph N/A   Overcast
10:55 PM 26.6 °F 18.2 °F 19.4 °F 74% 30.05 in 10.0 mi West 8.1 mph 16.1 mph N/A   Overcast
11:15 PM 26.6 °F 16.2 °F 19.4 °F 74% 30.06 in 10.0 mi West 11.5 mph 17.3 mph N/A   Overcast
11:35 PM 26.6 °F 20.0 °F 19.4 °F 74% 30.05 in 10.0 mi WNW 5.8 mph - N/A   Overcast
11:55 PM 26.6 °F 19.1 °F 19.4 °F 74% 30.05 in 10.0 mi West 6.9 mph - N/A   Overcast